Merced, CA (95341)

7:39 AM PDT on August 30, 2014 (GMT -0700)
North Merced | Change Station
CLOSE
Current Station
Personal Weather Station
Location: Merced, CA
Elevation: 184 ft
Nearby Weather Stations

Elev 184 ft 37.34 °N, 120.46 °W | Updated 20 seconds ago

Clear
Clear
69.0 °F
Feels Like 69.0 °F
N
2.0
Wind Variable Wind from NNW
Gusts 3.0 mph

Today
High -- | Low -- °F
--% Chance of Precip.
Yesterday
High -- | Low -- °F
Precip. -- in
6:30 AM 7:33 PM
Waxing Crescent, 22% visible
Pressure 29.85 in
Visibility 10.0 miles
Clouds Clear
Dew Point 56 °F
Humidity 63%
Rainfall 0.00 in
Snow Depth Not available.
UV 0 out of 12
Pollen 9.90 out of 12
Air Quality Not available.
Flu Activity Not available.
METAR KMCE 301353Z AUTO 33003KT 10SM CLR 21/12 A2985 RMK AO2 SLP106 T02060122

More Conditions Fewer Conditions

Pressure 29.85 in
Visibility 10.0 miles
Clouds Clear
Dew Point 56 °F
Humidity 63%
Rainfall 0.00 in
Snow Depth Not available.
UV 0 out of 12
Pollen 9.90 out of 12
Air Quality Not available.
Flu Activity Not available.
METAR KMCE 301353Z AUTO 33003KT 10SM CLR 21/12 A2985 RMK AO2 SLP106 T02060122

More Conditions Fewer Conditions

10-Day Weather Forecast

Almanac

Astronomy

Aug. 30, 2014 Rise Set
Actual Time 6:30 AM PDT 7:33 PM PDT
Civil Twilight 6:04 AM PDT 8:00 PM PDT
Nautical Twilight 5:32 AM PDT 8:32 PM PDT
Astronomical Twilight 4:59 AM PDT 9:04 PM PDT
Moon 11:16 AM PDT 10:18 PM PDT
Length of Visible Light 13h 56m
Length of Day
13h 02m
Tomorrow will be 2m 17s shorter.
Waxing Crescent, 22% of the Moon is Illuminated
Today
Waxing Crescent
Sep 2
First Quarter
Sep 8
Full
Sep 15
Last Quarter
Sep 24
New

Today's Extremes

State Highs State Lows

Community

WunderPhotos

Upload Photos

1,748,523 photos uploaded!

WunderBlogs® & News

Nearby

Air Quality

  Air Quality AQ Index Pollutant
Saturday Good
OZONE
Sunday Good
OZONE
Monday Good
OZONE
Tuesday Good
OZONE
Wednesday Good
OZONE

Snow Depth

Station Depth Elevation
Leavitt Lake 0 in 9400 ft
Leavitt Meadows 1 in 7200 ft
Summit Meadow 1 in 9122 ft
Forestdale Creek 0 in 8029 ft
Monitor Pass 0 in 8350 ft

Earthquake Activity

City Distance Mag. Time & Date
Ridgemark, California 64 miles 3.4 4:32 PM PDT
2014-08-29
Ridgemark, California 64 miles 3.0 2:44 PM PDT
2014-08-29
Orange Cove, California 84 miles 2.5 7:48 AM PDT
2014-08-29
Minimum magnitude displayed is 2.5.

Coastal Water Temperatures

Place Temperature
No Stations Reporting

Nearby Weather Stations